Time;durP1;ratioP1;P1;durP2;ratioP2;P2;SDS_P1;SDS_P2;PMS_P1;PMS_P2;Temp;Humidity;BMP_temperature;BMP_pressure;BME280_temperature;BME280_humidity;BME280_pressure;Samples;Min_cycle;Max_cycle;Signal;HPM_P1;HPM_P2
2022/04/07 00:02:23;;;;;;;11.23;6.90;;;;;;;9.52;81.87;98700.16;6293975;28;20468;-76
2022/04/07 00:05:24;;;;;;;10.95;7.15;;;;;;;9.49;81.67;98693.41;6294915;28;20080;-75
2022/04/07 00:08:24;;;;;;;11.18;6.70;;;;;;;9.47;82.61;98695.28;6293846;28;20454;-75
2022/04/07 00:11:25;;;;;;;11.13;7.30;;;;;;;9.41;83.44;98691.41;6310515;28;20063;-75
2022/04/07 00:14:26;;;;;;;11.18;6.95;;;;;;;9.40;83.57;98681.09;6294919;28;20488;-75
2022/04/07 00:17:28;;;;;;;10.85;6.85;;;;;;;9.38;83.76;98678.63;6294942;28;20037;-75
2022/04/07 00:20:29;;;;;;;12.13;6.95;;;;;;;9.36;84.32;98677.91;6293674;28;20052;-75
2022/04/07 00:23:30;;;;;;;13.57;7.30;;;;;;;9.30;83.92;98667.97;6294908;28;20066;-75
2022/04/07 00:26:32;;;;;;;11.63;6.88;;;;;;;9.25;83.95;98663.13;6310387;28;20356;-75
2022/04/07 00:29:33;;;;;;;11.38;7.15;;;;;;;9.20;84.86;98657.44;6293682;28;20400;-74
2022/04/07 00:32:40;;;;;;;10.82;7.10;;;;;;;9.20;84.55;98654.84;6276779;28;20139;-75
2022/04/07 00:35:41;;;;;;;10.52;7.03;;;;;;;9.19;85.26;98654.97;6294681;28;20476;-75
2022/04/07 00:38:42;;;;;;;16.83;7.18;;;;;;;9.17;85.00;98646.47;6294700;28;20036;-75
2022/04/07 00:41:42;;;;;;;13.27;7.15;;;;;;;9.13;85.50;98648.47;6276985;28;20050;-75
2022/04/07 00:44:44;;;;;;;9.55;6.20;;;;;;;9.12;85.29;98641.63;6293497;28;20036;-75
2022/04/07 00:47:46;;;;;;;10.55;7.00;;;;;;;9.10;85.05;98633.09;6294438;28;20044;-76
2022/04/07 00:50:47;;;;;;;;;;;;;;;9.11;84.85;98637.34;6278329;28;20086;-75
2022/04/07 00:53:48;;;;;;;12.30;6.63;;;;;;;9.08;85.47;98629.81;6297821;28;19920;-75
2022/04/07 00:56:49;;;;;;;13.05;6.80;;;;;;;9.00;84.72;98635.59;6319491;28;20038;-75
2022/04/07 00:59:50;;;;;;;10.45;6.70;;;;;;;8.94;85.48;98627.44;6307458;28;20040;-75
2022/04/07 01:02:51;;;;;;;14.30;7.55;;;;;;;8.90;86.11;98619.03;6299002;28;20504;-75
2022/04/07 01:05:52;;;;;;;10.98;6.45;;;;;;;8.88;85.41;98623.53;6299887;28;20071;-75
2022/04/07 01:08:54;;;;;;;9.95;6.32;;;;;;;8.84;86.13;98619.50;6298591;28;20102;-75
2022/04/07 01:11:56;;;;;;;13.63;6.75;;;;;;;8.82;86.73;98622.22;6315261;28;20103;-75
2022/04/07 01:15:00;;;;;;;11.73;6.68;;;;;;;8.83;86.31;98613.47;6299347;28;20053;-75
2022/04/07 01:18:01;;;;;;;11.10;6.72;;;;;;;8.80;85.66;98603.28;6298612;28;20076;-75
2022/04/07 01:21:02;;;;;;;12.32;6.47;;;;;;;8.79;86.49;98599.06;6298641;28;20036;-75
2022/04/07 01:24:08;;;;;;;12.07;6.97;;;;;;;8.77;85.88;98600.94;6297275;28;20086;-75
2022/04/07 01:27:09;;;;;;;9.63;6.03;;;;;;;8.74;87.27;98592.53;6308877;28;20381;-75
2022/04/07 01:30:10;;;;;;;9.23;6.55;;;;;;;8.65;86.54;98584.50;6297080;28;20049;-75
2022/04/07 01:33:12;;;;;;;13.70;6.88;;;;;;;8.71;86.83;98579.75;6297020;28;20048;-75
2022/04/07 01:36:14;;;;;;;12.88;6.40;;;;;;;8.73;87.94;98585.66;6296925;28;20041;-75
2022/04/07 01:39:20;;;;;;;10.45;6.45;;;;;;;8.70;87.10;98585.91;6297404;28;20037;-76
2022/04/07 01:42:21;;;;;;;16.48;6.25;;;;;;;8.63;87.29;98575.16;6319274;28;20128;-75
2022/04/07 01:45:23;;;;;;;10.15;6.47;;;;;;;8.63;86.93;98576.00;6324080;28;20051;-75
2022/04/07 01:48:24;;;;;;;9.77;6.30;;;;;;;8.66;86.99;98580.13;6324191;28;20541;-75
2022/04/07 01:51:25;;;;;;;13.05;6.22;;;;;;;8.65;86.15;98570.69;6323061;28;20477;-75
2022/04/07 01:54:26;;;;;;;9.60;6.05;;;;;;;8.66;86.62;98580.13;6322273;28;20439;-75
2022/04/07 01:57:27;;;;;;;11.88;6.07;;;;;;;8.66;86.23;98577.53;6322777;28;20040;-75
2022/04/07 02:00:28;;;;;;;13.07;6.47;;;;;;;8.61;85.92;98575.28;6321817;28;20040;-76
2022/04/07 02:03:29;;;;;;;9.70;6.32;;;;;;;8.50;86.02;98569.22;6321961;28;20063;-75
2022/04/07 02:06:30;;;;;;;10.88;6.20;;;;;;;8.53;87.46;98569.00;6323580;28;20070;-75
2022/04/07 02:09:33;;;;;;;8.57;5.80;;;;;;;8.60;88.23;98564.97;6323518;28;20048;-75
2022/04/07 02:12:37;;;;;;;10.23;5.93;;;;;;;8.62;87.70;98558.72;6322157;28;20767;-75
2022/04/07 02:15:38;;;;;;;10.52;6.45;;;;;;;8.61;86.54;98557.06;6323097;28;20123;-75
2022/04/07 02:18:39;;;;;;;12.93;5.85;;;;;;;8.59;85.59;98555.53;6321120;28;20050;-75
2022/04/07 02:21:40;;;;;;;8.50;5.68;;;;;;;8.60;87.11;98560.59;6322242;28;20058;-75
2022/04/07 02:24:41;;;;;;;8.85;6.20;;;;;;;8.53;86.97;98556.84;6322187;28;20680;-75
2022/04/07 02:27:42;;;;;;;9.45;6.07;;;;;;;8.46;87.00;98553.03;6322130;28;20738;-75
2022/04/07 02:30:44;;;;;;;9.00;5.77;;;;;;;8.41;86.58;98556.00;6322105;28;20511;-75
2022/04/07 02:33:46;;;;;;;10.13;6.15;;;;;;;8.35;86.70;98561.63;6320530;28;20044;-75
2022/04/07 02:36:46;;;;;;;10.38;6.53;;;;;;;8.32;86.56;98564.47;6320699;28;20492;-75
2022/04/07 02:39:47;;;;;;;10.43;6.65;;;;;;;8.22;87.31;98551.31;6320550;28;20044;-75
2022/04/07 02:42:48;;;;;;;9.90;5.82;;;;;;;8.18;89.63;98551.69;6321213;28;20098;-72
2022/04/07 02:45:49;;;;;;;10.27;5.88;;;;;;;8.17;88.90;98540.44;6320395;28;20067;-72
2022/04/07 02:48:50;;;;;;;9.90;6.68;;;;;;;8.17;90.11;98532.66;6321430;28;20109;-72
2022/04/07 02:51:50;;;;;;;12.70;6.63;;;;;;;8.17;89.25;98532.66;6303486;28;20484;-72
2022/04/07 02:54:51;;;;;;;8.60;5.78;;;;;;;8.13;90.13;98520.00;6321244;28;20048;-72
2022/04/07 02:57:52;;;;;;;11.35;6.10;;;;;;;8.12;90.42;98520.97;6286623;28;20519;-72
2022/04/07 03:00:53;;;;;;;10.20;5.75;;;;;;;8.07;90.42;98508.28;6321745;28;20085;-72
2022/04/07 03:03:55;;;;;;;8.77;5.47;;;;;;;8.06;90.88;98506.66;6322157;28;20096;-71
2022/04/07 03:06:56;;;;;;;9.77;5.85;;;;;;;8.05;90.97;98507.59;6320674;28;20498;-72
2022/04/07 03:09:56;;;;;;;10.40;6.00;;;;;;;8.03;90.83;98517.25;6321745;28;20110;-72
2022/04/07 03:12:57;;;;;;;8.73;5.97;;;;;;;8.06;91.01;98497.09;6337355;28;20051;-72
2022/04/07 03:15:58;;;;;;;8.93;5.55;;;;;;;8.10;91.42;98508.09;6320440;28;20472;-72
2022/04/07 03:18:59;;;;;;;10.32;5.78;;;;;;;8.08;89.88;98500.41;6321580;28;20040;-72
2022/04/07 03:22:00;;;;;;;9.88;5.75;;;;;;;8.07;90.64;98496.16;6306730;28;20049;-72
2022/04/07 03:25:01;;;;;;;9.45;5.40;;;;;;;8.08;90.96;98494.38;6296532;28;20045;-72
2022/04/07 03:28:06;;;;;;;9.40;5.75;;;;;;;8.09;90.43;98488.22;6296290;28;20385;-72
2022/04/07 03:31:06;;;;;;;9.15;6.20;;;;;;;8.06;90.32;98488.47;6295242;28;20045;-72
2022/04/07 03:34:07;;;;;;;12.23;6.80;;;;;;;8.06;90.05;98476.31;6296423;28;20053;-71
2022/04/07 03:37:08;;;;;;;11.32;5.97;;;;;;;8.13;90.05;98470.66;6312055;28;20442;-72
2022/04/07 03:40:10;;;;;;;9.65;5.70;;;;;;;8.08;89.69;98465.81;6296143;28;20041;-72
2022/04/07 03:43:11;;;;;;;16.27;6.65;;;;;;;8.14;88.60;98457.53;6296318;28;20382;-72
2022/04/07 03:46:16;;;;;;;10.13;6.85;;;;;;;8.17;88.00;98448.69;6296234;28;20123;-72
2022/04/07 03:49:16;;;;;;;12.90;6.63;;;;;;;8.21;87.98;98452.69;6294822;28;20118;-72
2022/04/07 03:52:17;;;;;;;12.18;6.25;;;;;;;8.23;87.83;98458.59;6312236;28;20044;-75
2022/04/07 03:55:20;;;;;;;9.00;5.82;;;;;;;8.22;86.68;98447.41;6294545;28;20083;-75
2022/04/07 03:58:21;;;;;;;11.10;5.72;;;;;;;8.23;87.56;98445.63;6294321;28;20424;-73
2022/04/07 04:01:21;;;;;;;10.95;6.20;;;;;;;8.30;87.66;98451.16;6296045;28;20064;-73
2022/04/07 04:04:22;;;;;;;12.32;5.82;;;;;;;8.30;86.61;98449.41;6296157;28;20039;-73
2022/04/07 04:07:23;;;;;;;10.05;5.70;;;;;;;8.28;87.55;98454.72;6294799;28;20066;-72
2022/04/07 04:10:24;;;;;;;10.82;5.93;;;;;;;8.31;87.20;98460.63;6294639;28;20105;-72
2022/04/07 04:13:26;;;;;;;11.77;5.38;;;;;;;8.34;87.47;98456.03;6311542;28;20049;-72
2022/04/07 04:16:27;;;;;;;12.70;5.57;;;;;;;8.35;86.45;98456.84;6294614;28;20130;-72
2022/04/07 04:19:27;;;;;;;11.02;5.70;;;;;;;8.34;86.68;98460.38;6294773;28;20469;-72
2022/04/07 04:22:28;;;;;;;11.02;5.78;;;;;;;8.28;86.91;98462.50;6294579;28;20396;-72
2022/04/07 04:25:29;;;;;;;9.32;6.20;;;;;;;8.30;87.52;98467.59;6296602;28;20122;-72
2022/04/07 04:28:30;;;;;;;13.35;5.72;;;;;;;8.34;87.14;98452.56;6299103;28;20061;-72
2022/04/07 04:31:31;;;;;;;8.75;5.28;;;;;;;8.39;86.50;98476.44;6300872;28;20056;-72
2022/04/07 04:34:32;;;;;;;8.85;5.80;;;;;;;8.30;86.27;98475.41;6307843;28;20044;-74
2022/04/07 04:37:33;;;;;;;9.40;5.70;;;;;;;8.29;87.52;98486.72;6314978;28;20048;-72
2022/04/07 04:40:33;;;;;;;10.73;5.95;;;;;;;8.26;88.59;98487.78;6301940;28;20087;-72
2022/04/07 04:43:34;;;;;;;10.27;5.43;;;;;;;8.23;87.87;98506.19;6324199;28;20062;-73
2022/04/07 04:46:35;;;;;;;10.88;5.75;;;;;;;8.36;86.00;98500.06;6289638;28;20416;-73
2022/04/07 04:49:40;;;;;;;13.50;5.93;;;;;;;8.43;85.91;98499.50;6311394;28;20057;-72
2022/04/07 04:52:41;;;;;;;11.15;6.20;;;;;;;8.50;87.17;98499.88;6311425;28;20113;-72
2022/04/07 04:55:42;;;;;;;14.43;7.30;;;;;;;8.50;85.96;98497.25;6339673;28;20508;-73
2022/04/07 04:58:42;;;;;;;14.90;6.90;;;;;;;8.49;86.81;98492.22;6324047;28;20040;-72
2022/04/07 05:01:43;;;;;;;13.98;7.07;;;;;;;8.41;86.37;98501.41;6318927;28;20934;-73
2022/04/07 05:04:44;;;;;;;11.13;6.43;;;;;;;8.43;86.43;98491.72;6299892;28;20404;-73
2022/04/07 05:07:45;;;;;;;11.90;5.90;;;;;;;8.55;86.07;98502.13;6310797;28;20040;-73
2022/04/07 05:10:45;;;;;;;13.50;6.38;;;;;;;8.54;85.46;98498.69;6296924;28;20056;-72
2022/04/07 05:13:47;;;;;;;13.52;6.30;;;;;;;8.66;84.30;98500.31;6314218;28;20124;-73
2022/04/07 05:16:48;;;;;;;13.45;7.55;;;;;;;8.80;82.84;98503.66;6298503;28;20381;-73
2022/04/07 05:19:49;;;;;;;14.63;7.43;;;;;;;8.86;82.51;98506.59;6298390;28;20051;-72
2022/04/07 05:22:50;;;;;;;19.20;7.30;;;;;;;8.99;81.69;98508.22;6280452;28;20048;-73
2022/04/07 05:25:51;;;;;;;18.73;7.03;;;;;;;9.10;80.73;98508.22;6297111;28;20068;-73
2022/04/07 05:28:52;;;;;;;19.65;6.60;;;;;;;9.15;81.13;98510.44;6296638;28;20420;-72
2022/04/07 05:31:53;;;;;;;9.15;4.57;;;;;;;9.27;80.14;98507.69;6304148;28;20105;-75
2022/04/07 05:34:53;;;;;;;10.77;4.60;;;;;;;9.44;79.05;98514.13;6280090;28;20041;-75
2022/04/07 05:37:59;;;;;;;11.60;4.85;;;;;;;9.53;79.04;98514.34;6306787;28;20037;-75
2022/04/07 05:41:00;;;;;;;8.40;4.32;;;;;;;9.80;78.41;98514.69;6321233;28;20044;-76
2022/04/07 05:44:01;;;;;;;12.25;4.15;;;;;;;9.97;78.38;98522.91;6304170;28;20044;-75
2022/04/07 05:47:02;;;;;;;16.92;4.38;;;;;;;10.13;76.73;98518.06;6321773;28;20042;-75
2022/04/07 05:50:03;;;;;;;16.60;4.55;;;;;;;10.24;77.27;98517.16;6320382;28;20047;-73
2022/04/07 05:53:04;;;;;;;18.25;4.10;;;;;;;10.35;76.71;98517.09;6321770;28;20068;-73
2022/04/07 05:56:05;;;;;;;13.25;3.70;;;;;;;10.45;76.53;98517.16;6321546;28;20044;-72
2022/04/07 05:59:06;;;;;;;17.58;4.03;;;;;;;10.53;76.82;98517.31;6321054;28;20074;-73
2022/04/07 06:02:07;;;;;;;22.90;5.05;;;;;;;10.58;76.57;98502.09;6320816;28;20138;-73
2022/04/07 06:05:09;;;;;;;18.08;5.35;;;;;;;10.68;77.23;98513.41;6270873;28;20048;-73
2022/04/07 06:08:10;;;;;;;;;;;;;;;10.79;76.92;98509.88;6322429;28;20090;-72
2022/04/07 06:11:10;;;;;;;14.65;3.92;;;;;;;10.94;77.28;98509.50;6321714;28;19920;-72
2022/04/07 06:14:11;;;;;;;14.73;4.20;;;;;;;10.92;78.59;98516.66;6321885;28;20127;-72
2022/04/07 06:17:12;;;;;;;16.42;4.72;;;;;;;10.95;78.16;98509.34;6321825;28;20162;-75
2022/04/07 06:20:14;;;;;;;17.15;3.75;;;;;;;11.03;77.61;98517.34;6286965;28;20056;-75
2022/04/07 06:23:15;;;;;;;12.02;3.60;;;;;;;11.14;77.34;98505.13;6321656;28;20079;-73
2022/04/07 06:26:18;;;;;;;19.50;4.05;;;;;;;11.15;78.00;98499.78;6287145;28;20075;-72
2022/04/07 06:29:18;;;;;;;18.40;3.97;;;;;;;11.22;77.97;98497.47;6321403;28;20071;-72
2022/04/07 06:32:23;;;;;;;18.65;4.28;;;;;;;11.17;78.73;98494.44;6321453;28;20118;-75
2022/04/07 06:35:23;;;;;;;17.27;3.97;;;;;;;11.28;78.18;98496.91;6303708;28;20479;-76
2022/04/07 06:38:24;;;;;;;17.67;4.18;;;;;;;11.33;78.64;98492.13;6320260;28;20119;-76
2022/04/07 06:41:25;;;;;;;23.20;4.43;;;;;;;11.37;77.86;98492.69;6302929;28;20058;-76
2022/04/07 06:44:26;;;;;;;18.48;4.22;;;;;;;11.39;78.83;98496.81;6303237;28;20243;-75
2022/04/07 06:47:27;;;;;;;24.17;6.38;;;;;;;11.52;77.67;98488.69;6320015;28;20036;-75
2022/04/07 06:50:28;;;;;;;23.20;5.20;;;;;;;11.61;77.97;98490.50;6320527;28;20040;-72
2022/04/07 06:53:29;;;;;;;23.85;4.47;;;;;;;11.75;77.27;98496.25;6319884;28;20067;-72
2022/04/07 06:56:29;;;;;;;14.90;4.03;;;;;;;11.79;77.69;98501.03;6269959;28;20500;-72
2022/04/07 06:59:30;;;;;;;13.52;4.45;;;;;;;11.84;78.16;98504.06;6320806;28;20040;-72
2022/04/07 07:02:31;;;;;;;16.77;4.57;;;;;;;11.94;78.28;98503.25;6319670;28;20036;-72
2022/04/07 07:05:34;;;;;;;19.58;3.97;;;;;;;12.04;78.12;98494.44;6320758;28;20044;-72
2022/04/07 07:08:34;;;;;;;18.35;3.90;;;;;;;12.11;78.52;98499.94;6319430;28;20036;-73
2022/04/07 07:11:35;;;;;;;18.67;4.20;;;;;;;12.19;78.34;98500.06;6319168;28;20063;-72
2022/04/07 07:14:36;;;;;;;17.67;3.95;;;;;;;12.29;78.73;98498.25;6320593;28;20044;-73
2022/04/07 07:17:38;;;;;;;21.55;3.92;;;;;;;12.39;78.57;98507.81;6302498;28;20119;-72
2022/04/07 07:20:39;;;;;;;27.08;4.13;;;;;;;12.47;77.69;98494.84;6320478;28;20477;-73
2022/04/07 07:23:40;;;;;;;21.40;4.72;;;;;;;12.46;78.39;98501.91;6320315;28;20040;-76
2022/04/07 07:26:41;;;;;;;19.75;4.35;;;;;;;12.52;78.24;98495.28;6302474;28;20119;-76
2022/04/07 07:29:42;;;;;;;21.08;5.80;;;;;;;12.57;77.48;98500.88;6320301;28;20059;-76
2022/04/07 07:32:45;;;;;;;23.63;4.32;;;;;;;12.53;79.44;98490.84;6320310;28;20067;-73
2022/04/07 07:35:46;;;;;;;17.27;4.32;;;;;;;12.53;79.22;98496.09;6318831;28;20476;-73
2022/04/07 07:38:47;;;;;;;23.60;4.05;;;;;;;12.53;80.03;98498.69;6319059;28;20042;-76
2022/04/07 07:41:48;;;;;;;22.45;3.83;;;;;;;12.62;79.35;98492.59;6285488;28;20048;-75
2022/04/07 07:44:49;;;;;;;21.40;4.22;;;;;;;12.65;80.51;98493.13;6320159;28;20051;-76
2022/04/07 07:47:51;;;;;;;29.00;4.40;;;;;;;12.70;79.88;98501.38;6320135;28;20050;-76
2022/04/07 07:50:52;;;;;;;23.25;4.28;;;;;;;12.80;80.39;98498.69;6318762;28;20044;-76
2022/04/07 07:53:53;;;;;;;17.83;4.25;;;;;;;12.87;80.25;98505.03;6302314;28;20044;-73
2022/04/07 07:56:54;;;;;;;23.30;4.28;;;;;;;13.04;81.41;98513.88;6318766;28;20032;-76
2022/04/07 07:59:56;;;;;;;25.60;5.03;;;;;;;13.01;80.99;98516.78;6318815;28;20043;-76
2022/04/07 08:02:57;;;;;;;20.40;4.78;;;;;;;13.18;82.02;98519.56;6341031;28;20052;-76
2022/04/07 08:05:59;;;;;;;14.38;4.63;;;;;;;13.30;81.31;98514.03;6306966;28;20067;-76
2022/04/07 08:09:00;;;;;;;18.25;3.83;;;;;;;13.44;81.30;98517.91;6307049;28;20048;-76
2022/04/07 08:12:02;;;;;;;17.98;4.57;;;;;;;13.43;79.52;98516.28;6340352;28;20121;-76
2022/04/07 08:15:05;;;;;;;17.83;4.43;;;;;;;13.47;81.00;98516.81;6324902;28;20048;-76
2022/04/07 08:18:06;;;;;;;19.48;3.63;;;;;;;13.35;82.20;98510.94;6306556;28;20059;-77
2022/04/07 08:21:07;;;;;;;19.40;4.47;;;;;;;13.40;83.05;98513.13;6324650;28;20476;-76
2022/04/07 08:24:07;;;;;;;17.27;4.32;;;;;;;13.38;82.75;98509.81;6289664;28;20317;-76
2022/04/07 08:27:08;;;;;;;22.83;4.40;;;;;;;13.43;81.78;98518.06;6323356;28;20118;-76
2022/04/07 08:30:10;;;;;;;17.08;3.53;;;;;;;13.22;82.30;98519.16;6324323;28;20040;-76
2022/04/07 08:33:13;;;;;;;16.57;4.30;;;;;;;13.32;83.63;98506.00;6324563;28;20124;-76
2022/04/07 08:36:14;;;;;;;10.07;3.30;;;;;;;13.10;83.10;98518.53;6323179;28;20036;-76
2022/04/07 08:39:16;;;;;;;16.35;4.00;;;;;;;12.95;84.04;98524.38;6293989;28;20447;-76
2022/04/07 08:42:26;;;;;;;22.45;3.70;;;;;;;12.85;84.86;98527.06;6297713;28;20051;-76
2022/04/07 08:45:29;;;;;;;21.08;4.28;;;;;;;12.75;87.26;98518.44;6297633;28;20098;-76
2022/04/07 08:48:31;;;;;;;20.13;4.25;;;;;;;12.61;88.35;98519.75;6297725;28;20044;-76
2022/04/07 08:51:32;;;;;;;23.35;5.00;;;;;;;12.55;90.53;98525.53;6315532;28;20044;-76
2022/04/07 08:54:34;;;;;;;26.75;5.15;;;;;;;12.35;93.20;98528.22;6309580;28;20052;-76
2022/04/07 08:57:37;;;;;;;12.68;3.40;;;;;;;12.29;94.11;98521.78;6317357;28;20036;-76
2022/04/07 09:00:38;;;;;;;15.02;4.07;;;;;;;12.24;95.86;98517.94;6324045;28;20105;-76
2022/04/07 09:03:39;;;;;;;9.43;3.50;;;;;;;12.25;97.47;98522.19;6322432;28;20480;-76
2022/04/07 09:06:41;;;;;;;14.60;3.80;;;;;;;12.09;99.51;98518.38;6307017;28;20075;-76
2022/04/07 09:09:43;;;;;;;15.13;3.72;;;;;;;12.18;100.00;98519.31;6296936;28;20044;-76
2022/04/07 09:12:44;;;;;;;9.80;3.97;;;;;;;12.17;100.00;98522.06;6296815;28;20182;-76
2022/04/07 09:15:45;;;;;;;11.00;3.77;;;;;;;12.15;100.00;98529.22;6295744;28;20090;-76
2022/04/07 09:18:49;;;;;;;14.63;4.03;;;;;;;12.17;100.00;98522.91;6295873;28;20119;-76
2022/04/07 09:22:10;;;;;;;9.63;4.07;;;;;;;11.97;100.00;98529.13;6295629;28;20492;-76
2022/04/07 09:25:12;;;;;;;9.10;4.20;;;;;;;12.01;100.00;98518.25;6312316;28;20083;-76
2022/04/07 09:28:30;;;;;;;8.98;4.65;;;;;;;12.04;100.00;98519.75;6312228;28;20040;-73
2022/04/07 09:31:35;;;;;;;17.83;4.93;;;;;;;12.00;100.00;98524.44;6303994;28;20086;-73
2022/04/07 09:34:36;;;;;;;14.00;4.57;;;;;;;12.05;100.00;98524.03;6320430;28;20113;-74
2022/04/07 09:37:40;;;;;;;7.88;3.60;;;;;;;12.05;100.00;98518.81;6320507;28;20063;-74
2022/04/07 09:40:44;;;;;;;9.60;4.70;;;;;;;12.12;100.00;98519.06;6320360;28;20048;-74
2022/04/07 09:43:50;;;;;;;10.73;4.25;;;;;;;12.24;100.00;98507.47;6321494;28;20450;-74
2022/04/07 09:46:51;;;;;;;10.18;4.15;;;;;;;12.16;100.00;98502.94;6320248;28;20451;-74
2022/04/07 09:49:52;;;;;;;7.25;4.07;;;;;;;12.18;100.00;98500.19;6303522;28;20036;-75
2022/04/07 09:53:03;;;;;;;10.80;5.00;;;;;;;12.25;100.00;98490.78;6303309;28;20392;-75
2022/04/07 09:56:08;;;;;;;19.33;8.38;;;;;;;12.35;100.00;98494.22;6320188;28;20040;-74
2022/04/07 09:59:10;;;;;;;11.82;5.30;;;;;;;12.38;100.00;98490.50;6321230;28;20472;-75
2022/04/07 10:02:11;;;;;;;10.63;4.53;;;;;;;12.43;100.00;98480.41;6303179;28;20566;-75
2022/04/07 10:05:13;;;;;;;9.73;3.80;;;;;;;12.22;100.00;98478.84;6319716;28;20040;-75
2022/04/07 10:08:18;;;;;;;14.52;4.32;;;;;;;12.29;100.00;98481.69;6319960;28;20143;-75
2022/04/07 10:11:19;;;;;;;11.13;5.03;;;;;;;12.30;100.00;98484.19;6274031;28;1350930;-74
2022/04/07 10:14:23;;;;;;;12.45;4.93;;;;;;;12.34;100.00;98471.66;6321973;28;20064;-74
2022/04/07 10:17:24;;;;;;;11.57;4.88;;;;;;;12.43;100.00;98467.34;6320805;28;20048;-75
2022/04/07 10:20:33;;;;;;;12.00;3.88;;;;;;;12.32;100.00;98465.75;6321838;28;20067;-74
2022/04/07 10:24:16;;;;;;;7.13;3.53;;;;;;;12.48;100.00;98457.28;6320970;28;20040;-75
2022/04/07 10:27:21;;;;;;;9.73;3.72;;;;;;;12.43;100.00;98456.88;6336954;28;20071;-75
2022/04/07 10:30:22;;;;;;;13.23;3.63;;;;;;;12.47;100.00;98459.06;6321770;28;20393;-74
2022/04/07 10:33:41;;;;;;;8.90;4.28;;;;;;;12.53;100.00;98459.47;6303473;28;20507;-75
2022/04/07 10:36:43;;;;;;;8.95;4.13;;;;;;;12.34;100.00;98461.19;6337306;28;20040;-75
2022/04/07 10:39:46;;;;;;;8.55;3.95;;;;;;;12.29;100.00;98451.16;6315915;28;20045;-75
2022/04/07 10:43:13;;;;;;;11.05;4.38;;;;;;;12.27;100.00;98447.88;6317845;28;20075;-75
2022/04/07 10:46:18;;;;;;;15.93;3.97;;;;;;;12.18;100.00;98447.91;6286407;28;20056;-75
2022/04/07 10:49:26;;;;;;;9.50;3.53;;;;;;;12.20;100.00;98444.16;6278957;28;20515;-75
2022/04/07 10:52:27;;;;;;;11.50;3.70;;;;;;;12.30;100.00;98434.50;6322489;28;20055;-76
2022/04/07 10:55:54;;;;;;;12.48;4.40;;;;;;;12.27;100.00;98436.56;6296052;28;20052;-76
2022/04/07 10:58:55;;;;;;;12.73;3.65;;;;;;;12.30;100.00;98436.28;6294848;28;20093;-75
2022/04/07 11:02:09;;;;;;;13.05;4.05;;;;;;;12.42;100.00;98436.94;6296060;28;20041;-79
2022/04/07 11:05:23;;;;;;;18.00;3.97;;;;;;;12.45;100.00;98426.16;6300060;28;20036;-79
2022/04/07 11:08:24;;;;;;;12.20;3.75;;;;;;;12.54;100.00;98435.78;6302303;28;20036;-79
2022/04/07 11:11:52;;;;;;;6.70;3.47;;;;;;;12.45;100.00;98424.38;6294388;28;20428;-79
2022/04/07 11:15:16;;;;;;;14.90;4.43;;;;;;;12.44;100.00;98427.16;6294061;28;20404;-79
2022/04/07 11:19:00;;;;;;;12.65;4.63;;;;;;;12.48;100.00;98431.13;6295552;28;20489;-79
2022/04/07 11:22:09;;;;;;;9.38;3.90;;;;;;;12.53;100.00;98428.06;6275053;28;20055;-80
2022/04/07 11:25:13;;;;;;;11.50;3.88;;;;;;;12.37;100.00;98429.50;6293964;28;20136;-80
2022/04/07 11:28:22;;;;;;;13.45;4.15;;;;;;;12.43;100.00;98428.09;6295286;28;20049;-80
2022/04/07 11:31:48;;;;;;;12.23;4.07;;;;;;;12.50;100.00;98423.97;6294049;28;20052;-81
2022/04/07 11:34:50;;;;;;;9.18;4.00;;;;;;;12.37;100.00;98424.28;6295181;28;20055;-80
2022/04/07 11:37:51;;;;;;;;;;;;;;;12.36;100.00;98427.88;6294325;28;20062;-81
2022/04/07 11:41:03;;;;;;;15.00;5.40;;;;;;;12.38;100.00;98423.31;6295306;28;19956;-80
2022/04/07 11:44:08;;;;;;;15.87;5.60;;;;;;;12.49;100.00;98424.91;6293724;28;20124;-80
2022/04/07 11:47:33;;;;;;;13.85;4.13;;;;;;;12.42;100.00;98418.63;6293972;28;20300;-80
2022/04/07 11:50:38;;;;;;;16.20;4.45;;;;;;;12.39;100.00;98417.09;6293798;28;20044;-80
2022/04/07 11:53:41;;;;;;;10.18;3.38;;;;;;;12.45;100.00;98418.31;6295115;28;20044;-80
2022/04/07 11:56:42;;;;;;;10.93;4.60;;;;;;;12.22;100.00;98420.50;6293800;28;20052;-80
2022/04/07 11:59:43;;;;;;;21.85;7.50;;;;;;;12.13;100.00;98422.19;6293882;28;20041;-80
2022/04/07 12:02:59;;;;;;;22.98;8.15;;;;;;;12.06;100.00;98419.28;6293740;28;20516;-80
2022/04/07 12:06:01;;;;;;;38.30;14.52;;;;;;;12.06;100.00;98411.44;6293582;28;20614;-80
2022/04/07 12:09:03;;;;;;;14.27;4.53;;;;;;;12.10;100.00;98419.84;6293728;28;20041;-80
2022/04/07 12:12:06;;;;;;;12.63;6.15;;;;;;;12.14;100.00;98417.78;6293490;28;20048;-80
2022/04/07 12:15:08;;;;;;;;;;;;;;;12.23;100.00;98417.75;6293894;28;20052;-81
2022/04/07 12:18:08;;;;;;;26.27;12.00;;;;;;;12.14;100.00;98410.75;6276909;28;19921;-80
2022/04/07 12:21:10;;;;;;;18.48;6.05;;;;;;;12.05;100.00;98411.63;6277012;28;20041;-79
2022/04/07 12:24:13;;;;;;;68.20;30.33;;;;;;;12.04;100.00;98405.53;6293373;28;20048;-78
2022/04/07 12:27:26;;;;;;;89.63;47.17;;;;;;;11.94;100.00;98398.72;6293459;28;20037;-78
2022/04/07 12:30:45;;;;;;;30.88;14.55;;;;;;;11.96;100.00;98396.78;6293297;28;20068;-78
2022/04/07 12:33:48;;;;;;;18.33;9.23;;;;;;;11.84;100.00;98402.16;6310081;28;20049;-78
2022/04/07 12:36:49;;;;;;;25.13;11.00;;;;;;;11.87;100.00;98387.97;6293201;28;20075;-77
2022/04/07 12:39:50;;;;;;;20.80;9.13;;;;;;;11.95;100.00;98389.91;6293329;28;20048;-78
2022/04/07 12:43:01;;;;;;;19.35;4.53;;;;;;;12.00;100.00;98392.91;6293278;28;20053;-78
2022/04/07 12:46:02;;;;;;;15.60;4.88;;;;;;;11.95;100.00;98390.72;6293050;28;20075;-77
2022/04/07 12:49:05;;;;;;;12.45;4.88;;;;;;;11.83;100.00;98387.44;6298828;28;20040;-77
2022/04/07 12:52:14;;;;;;;11.63;3.97;;;;;;;11.95;100.00;98400.38;6314575;28;20493;-77
2022/04/07 12:55:17;;;;;;;10.73;4.15;;;;;;;12.00;100.00;98385.06;6297235;28;20416;-77
2022/04/07 12:58:31;;;;;;;13.60;5.55;;;;;;;11.98;100.00;98387.00;6314048;28;20049;-77
2022/04/07 13:01:32;;;;;;;25.88;9.50;;;;;;;12.07;100.00;98375.69;6297324;28;20071;-77
2022/04/07 13:04:53;;;;;;;13.95;4.30;;;;;;;12.05;100.00;98369.78;6297211;28;20068;-76
2022/04/07 13:07:56;;;;;;;12.77;5.22;;;;;;;12.00;100.00;98374.63;6297067;28;20048;-76
2022/04/07 13:10:57;;;;;;;13.93;5.10;;;;;;;11.91;100.00;98367.66;6297233;28;20133;-76
2022/04/07 13:13:59;;;;;;;10.65;4.47;;;;;;;11.79;100.00;98365.16;6296822;28;20052;-76
2022/04/07 13:17:01;;;;;;;;;;;;;;;11.86;100.00;98374.09;6314145;28;20044;-76
2022/04/07 13:20:04;;;;;;;14.80;5.70;;;;;;;11.82;100.00;98362.28;6296787;28;20228;-76
2022/04/07 13:23:05;;;;;;;13.65;5.47;;;;;;;11.72;100.00;98361.47;6296754;28;20053;-76
2022/04/07 13:26:05;;;;;;;12.18;4.88;;;;;;;11.77;100.00;98364.47;6313401;28;20051;-76
2022/04/07 13:29:07;;;;;;;17.50;5.07;;;;;;;11.79;100.00;98364.34;6296683;28;20054;-75
2022/04/07 13:32:08;;;;;;;11.95;4.93;;;;;;;11.68;100.00;98353.09;6296558;28;20056;-77
2022/04/07 13:35:09;;;;;;;15.18;5.88;;;;;;;11.88;100.00;98353.03;6299512;28;20050;-76
2022/04/07 13:38:10;;;;;;;13.50;5.03;;;;;;;11.89;100.00;98350.31;6309470;28;20043;-75
2022/04/07 13:41:12;;;;;;;15.90;5.30;;;;;;;11.93;100.00;98344.81;6323288;28;20036;-76
2022/04/07 13:44:13;;;;;;;12.88;6.88;;;;;;;11.97;100.00;98344.38;6345255;28;20048;-76
2022/04/07 13:47:13;;;;;;;17.92;5.90;;;;;;;12.16;100.00;98338.22;6280176;28;20496;-76
2022/04/07 13:50:14;;;;;;;13.35;5.55;;;;;;;12.14;100.00;98331.50;6297655;28;20041;-76
2022/04/07 13:53:18;;;;;;;12.00;5.20;;;;;;;12.15;98.18;98330.50;6296351;28;20400;-75
2022/04/07 13:56:19;;;;;;;15.57;6.40;;;;;;;12.14;98.25;98323.66;6296171;28;20058;-76
2022/04/07 13:59:21;;;;;;;15.02;6.57;;;;;;;12.14;97.86;98321.84;6294938;28;20117;-75
2022/04/07 14:02:22;;;;;;;23.75;9.18;;;;;;;12.33;97.90;98325.31;6297298;28;20111;-76
2022/04/07 14:05:23;;;;;;;17.75;6.82;;;;;;;12.34;95.08;98322.56;6295894;28;20041;-76
2022/04/07 14:08:24;;;;;;;19.38;10.63;;;;;;;12.38;95.68;98312.66;6328344;28;20043;-76
2022/04/07 14:11:25;;;;;;;22.90;12.30;;;;;;;12.36;95.90;98304.94;6322075;28;20063;-76
2022/04/07 14:14:26;;;;;;;18.48;8.70;;;;;;;12.33;95.97;98307.03;6317842;28;20700;-76
2022/04/07 14:17:27;;;;;;;11.80;6.82;;;;;;;12.35;96.95;98302.47;6295526;28;20147;-75